createdAt,value
2018-02-25T00:00:54.657Z,-5.30
2018-02-25T00:03:20.822Z,-5.20
2018-02-25T00:05:47.057Z,-5.30
2018-02-25T00:08:14.017Z,-5.30
2018-02-25T00:10:40.925Z,-5.40
2018-02-25T00:13:07.066Z,-5.40
2018-02-25T00:15:33.249Z,-5.50
2018-02-25T00:17:59.494Z,-5.40
2018-02-25T00:20:25.621Z,-5.40
2018-02-25T00:22:51.835Z,-5.40
2018-02-25T00:25:18.019Z,-5.60
2018-02-25T00:27:44.952Z,-5.40
2018-02-25T00:30:11.157Z,-5.50
2018-02-25T00:32:37.326Z,-5.60
2018-02-25T00:35:04.308Z,-5.50
2018-02-25T00:37:30.524Z,-5.60
2018-02-25T00:39:56.772Z,-5.60
2018-02-25T00:42:23.015Z,-5.60
2018-02-25T00:44:49.243Z,-5.60
2018-02-25T00:47:15.458Z,-5.60
2018-02-25T00:49:41.607Z,-5.70
2018-02-25T00:52:07.796Z,-5.70
2018-02-25T00:54:34.082Z,-5.60
2018-02-25T00:57:00.294Z,-5.70
2018-02-25T00:59:26.454Z,-5.80
2018-02-25T01:01:53.329Z,-5.70
2018-02-25T01:04:19.518Z,-5.80
2018-02-25T01:06:46.445Z,-5.90
2018-02-25T01:09:13.354Z,-5.90
2018-02-25T01:11:39.560Z,-5.90
2018-02-25T01:14:05.759Z,-5.70
2018-02-25T01:16:32.636Z,-6.00
2018-02-25T01:18:58.815Z,-6.00
2018-02-25T01:21:25.003Z,-6.00
2018-02-25T01:23:51.270Z,-6.00
2018-02-25T01:26:17.487Z,-6.10
2018-02-25T01:28:43.671Z,-6.10
2018-02-25T01:31:09.875Z,-6.00
2018-02-25T01:33:36.763Z,-6.10
2018-02-25T01:36:02.929Z,-6.10
2018-02-25T01:38:29.181Z,-6.00
2018-02-25T01:40:55.404Z,-6.00
2018-02-25T01:43:22.375Z,-6.10
2018-02-25T01:45:48.576Z,-6.20
2018-02-25T01:48:15.544Z,-6.10
2018-02-25T01:50:54.187Z,-6.10
2018-02-25T01:53:20.398Z,-6.10
2018-02-25T01:55:46.531Z,-6.20
2018-02-25T01:58:12.750Z,-6.00
2018-02-25T02:00:38.945Z,-5.90
2018-02-25T02:03:05.120Z,-5.90
2018-02-25T02:05:31.346Z,-6.10
2018-02-25T02:07:57.582Z,-6.00
2018-02-25T02:10:23.764Z,-6.10
2018-02-25T02:12:49.936Z,-6.20
2018-02-25T02:15:16.101Z,-6.10
2018-02-25T02:17:42.276Z,-6.10
2018-02-25T02:20:08.483Z,-6.00
2018-02-25T02:22:34.674Z,-6.20
2018-02-25T02:25:00.885Z,-6.20
2018-02-25T02:27:27.082Z,-6.30
2018-02-25T02:29:53.232Z,-6.20
2018-02-25T02:32:19.474Z,-6.30
2018-02-25T02:34:45.647Z,-6.30
2018-02-25T02:37:11.817Z,-6.40
2018-02-25T02:39:37.935Z,-6.30
2018-02-25T02:42:04.075Z,-6.30
2018-02-25T02:44:30.251Z,-6.30
2018-02-25T02:46:57.116Z,-6.30
2018-02-25T02:49:23.288Z,-6.30
2018-02-25T02:51:49.520Z,-6.40
2018-02-25T02:54:15.660Z,-6.50
2018-02-25T02:56:42.603Z,-6.30
2018-02-25T02:59:08.829Z,-6.30
2018-02-25T03:01:35.716Z,-6.40
2018-02-25T03:04:01.977Z,-6.40
2018-02-25T03:06:28.181Z,-6.40
2018-02-25T03:08:54.365Z,-6.30
2018-02-25T03:11:21.308Z,-6.40
2018-02-25T03:13:48.226Z,-6.40
2018-02-25T03:16:14.389Z,-6.40
2018-02-25T03:18:41.318Z,-6.40
2018-02-25T03:21:08.283Z,-6.40
2018-02-25T03:23:35.184Z,-6.30
2018-02-25T03:26:01.376Z,-6.40
2018-02-25T03:28:27.646Z,-6.40
2018-02-25T03:30:53.794Z,-6.50
2018-02-25T03:33:20.790Z,-6.50
2018-02-25T03:35:46.983Z,-6.50
2018-02-25T03:38:13.945Z,-6.50
2018-02-25T03:40:40.177Z,-6.50
2018-02-25T03:43:06.348Z,-6.50
2018-02-25T03:45:32.584Z,-6.60
2018-02-25T03:47:58.710Z,-6.40
2018-02-25T03:50:24.931Z,-6.50
2018-02-25T03:52:51.116Z,-6.60
2018-02-25T03:55:17.306Z,-6.50
2018-02-25T03:57:44.279Z,-6.50
2018-02-25T04:00:10.499Z,-6.50
2018-02-25T04:02:36.668Z,-6.50
2018-02-25T04:05:02.874Z,-6.60
2018-02-25T04:07:29.059Z,-6.60
2018-02-25T04:09:55.947Z,-6.80
2018-02-25T04:12:22.157Z,-6.80
2018-02-25T04:14:48.370Z,-6.70
2018-02-25T04:17:14.520Z,-6.60
2018-02-25T04:19:40.716Z,-6.50
2018-02-25T04:22:07.632Z,-6.60
2018-02-25T04:24:33.797Z,-6.70
2018-02-25T04:27:00.676Z,-6.70
2018-02-25T04:29:26.872Z,-6.70
2018-02-25T04:31:53.059Z,-6.80
2018-02-25T04:34:19.307Z,-6.80
2018-02-25T04:36:46.231Z,-6.90
2018-02-25T04:39:12.393Z,-6.90
2018-02-25T04:41:39.340Z,-6.80
2018-02-25T04:44:06.266Z,-6.80
2018-02-25T04:46:32.482Z,-6.80
2018-02-25T04:48:58.655Z,-6.70
2018-02-25T04:51:24.838Z,-6.90
2018-02-25T04:53:51.811Z,-6.80
2018-02-25T04:56:18.732Z,-6.80
2018-02-25T04:58:44.959Z,-6.80
2018-02-25T05:01:11.094Z,-6.80
2018-02-25T05:03:37.250Z,-6.80
2018-02-25T05:06:03.410Z,-6.80
2018-02-25T05:08:29.569Z,-6.80
2018-02-25T05:10:55.761Z,-6.80
2018-02-25T05:13:21.996Z,-6.70
2018-02-25T05:15:48.184Z,-6.90
2018-02-25T05:18:14.416Z,-6.90
2018-02-25T05:20:40.582Z,-6.80
2018-02-25T05:23:06.769Z,-6.80
2018-02-25T05:25:32.977Z,-6.70
2018-02-25T05:27:59.923Z,-6.70
2018-02-25T05:30:26.830Z,-6.70
2018-02-25T05:32:53.013Z,-6.70
2018-02-25T05:35:19.222Z,-6.80
2018-02-25T05:37:46.130Z,-6.90
2018-02-25T05:40:12.350Z,-6.90
2018-02-25T05:42:38.548Z,-6.80
2018-02-25T05:45:04.703Z,-7.00
2018-02-25T05:47:30.891Z,-6.80
2018-02-25T05:49:57.105Z,-6.90
2018-02-25T05:52:24.061Z,-6.90
2018-02-25T05:54:50.219Z,-7.00
2018-02-25T05:57:16.376Z,-6.80
2018-02-25T05:59:42.531Z,-6.80
2018-02-25T06:02:09.414Z,-6.90
2018-02-25T06:04:35.656Z,-7.00
2018-02-25T06:07:01.838Z,-6.80
2018-02-25T06:09:28.796Z,-6.60
2018-02-25T06:11:54.955Z,-6.70
2018-02-25T06:14:21.139Z,-6.70
2018-02-25T06:16:48.070Z,-6.70
2018-02-25T06:19:14.956Z,-6.60
2018-02-25T06:21:41.130Z,-6.60
2018-02-25T06:24:07.274Z,-6.50
2018-02-25T06:26:34.203Z,-6.50
2018-02-25T06:29:00.407Z,-6.50
2018-02-25T06:31:26.660Z,-6.40
2018-02-25T06:33:53.558Z,-6.20
2018-02-25T06:36:19.752Z,-6.20
2018-02-25T06:38:46.712Z,-6.00
2018-02-25T06:41:12.915Z,-6.00
2018-02-25T06:43:39.896Z,-5.90
2018-02-25T06:46:06.097Z,-5.90
2018-02-25T06:48:33.043Z,-5.90
2018-02-25T06:50:59.945Z,-6.10
2018-02-25T06:53:26.171Z,-6.10
2018-02-25T06:55:52.286Z,-6.10
2018-02-25T06:58:18.492Z,-6.20
2018-02-25T07:00:44.690Z,-6.10
2018-02-25T07:03:11.771Z,-6.10
2018-02-25T07:05:37.952Z,-6.20
2018-02-25T07:08:04.127Z,-5.90
2018-02-25T07:10:30.311Z,-5.80
2018-02-25T07:12:56.576Z,-5.80
2018-02-25T07:15:22.786Z,-5.60
2018-02-25T07:17:48.955Z,-5.60
2018-02-25T07:20:15.174Z,-4.60
2018-02-25T07:22:41.363Z,-4.40
2018-02-25T07:25:08.325Z,-4.20
2018-02-25T07:27:34.596Z,-4.20
2018-02-25T07:30:00.822Z,-4.30
2018-02-25T07:32:27.087Z,-4.40
2018-02-25T07:34:54.040Z,-5.00
2018-02-25T07:37:21.007Z,-5.40
2018-02-25T07:39:47.276Z,-5.40
2018-02-25T07:42:13.509Z,-5.40
2018-02-25T07:44:39.684Z,-5.50
2018-02-25T07:47:05.823Z,-5.40
2018-02-25T07:49:31.989Z,-5.40
2018-02-25T07:51:58.142Z,-5.50
2018-02-25T07:54:25.024Z,-5.20
2018-02-25T07:56:51.254Z,-5.20
2018-02-25T07:59:17.533Z,-5.40
2018-02-25T08:01:44.438Z,-4.80
2018-02-25T08:04:10.688Z,-4.80
2018-02-25T08:06:36.882Z,-4.50
2018-02-25T08:09:03.173Z,-4.40
2018-02-25T08:11:30.140Z,-4.40
2018-02-25T08:13:56.329Z,-4.40
2018-02-25T08:16:22.507Z,-4.30
2018-02-25T08:18:48.656Z,-3.70
2018-02-25T08:21:14.862Z,-2.20
2018-02-25T08:23:41.109Z,-1.80
2018-02-25T08:26:07.354Z,-2.70
2018-02-25T08:28:33.577Z,-3.30
2018-02-25T08:30:59.705Z,-4.10
2018-02-25T08:33:25.857Z,-4.70
2018-02-25T08:35:52.035Z,-5.00
2018-02-25T08:38:18.196Z,-5.20
2018-02-25T08:40:44.376Z,-5.10
2018-02-25T08:43:10.513Z,-4.90
2018-02-25T08:45:36.772Z,-5.00
2018-02-25T08:48:03.692Z,-4.30
2018-02-25T08:50:29.957Z,-4.30
2018-02-25T08:52:56.166Z,-3.70
2018-02-25T08:55:22.578Z,-3.60
2018-02-25T08:57:48.809Z,-3.90
2018-02-25T09:00:14.993Z,-4.00
2018-02-25T09:02:41.957Z,-3.90
2018-02-25T09:05:08.190Z,-3.90
2018-02-25T09:07:34.409Z,-3.70
2018-02-25T09:10:00.621Z,-3.20
2018-02-25T09:12:27.592Z,-2.90
2018-02-25T09:14:53.768Z,-2.90
2018-02-25T09:17:19.974Z,-3.00
2018-02-25T09:19:46.190Z,-3.00
2018-02-25T09:22:12.449Z,-2.90
2018-02-25T09:24:38.625Z,-2.50
2018-02-25T09:27:04.888Z,-2.60
2018-02-25T09:29:31.139Z,-2.40
2018-02-25T09:31:57.344Z,-2.20
2018-02-25T09:34:23.529Z,-2.10
2018-02-25T09:36:50.449Z,-2.30
2018-02-25T09:39:16.684Z,-2.40
2018-02-25T09:41:43.612Z,-2.40
2018-02-25T09:44:09.881Z,-2.50
2018-02-25T09:46:36.076Z,-2.20
2018-02-25T09:49:02.346Z,-2.10
2018-02-25T09:51:28.607Z,-1.80
2018-02-25T09:53:54.827Z,-1.30
2018-02-25T09:56:21.066Z,-0.90
2018-02-25T09:58:47.316Z,-0.40
2018-02-25T10:01:13.574Z,0.20
2018-02-25T10:03:40.548Z,0.60
2018-02-25T10:06:06.799Z,0.60
2018-02-25T10:08:33.023Z,-0.40
2018-02-25T10:10:59.223Z,-0.90
2018-02-25T10:13:25.457Z,-0.90
2018-02-25T10:15:51.659Z,-0.20
2018-02-25T10:18:18.638Z,0.70
2018-02-25T10:20:44.900Z,0.70
2018-02-25T10:23:11.050Z,0.70
2018-02-25T10:25:37.992Z,0.90
2018-02-25T10:28:04.903Z,1.10
2018-02-25T10:30:31.123Z,1.10
2018-02-25T10:32:57.277Z,1.40
2018-02-25T10:35:23.396Z,1.60
2018-02-25T10:37:49.583Z,1.50
2018-02-25T10:40:15.760Z,1.50
2018-02-25T10:42:42.773Z,0.90
2018-02-25T10:45:08.971Z,0.90
2018-02-25T10:47:35.197Z,1.30
2018-02-25T10:50:02.153Z,2.40
2018-02-25T10:52:28.404Z,2.40
2018-02-25T10:54:54.621Z,2.60
2018-02-25T10:57:20.803Z,2.40
2018-02-25T10:59:47.755Z,1.80
2018-02-25T11:02:14.691Z,1.60
2018-02-25T11:04:40.885Z,1.60
2018-02-25T11:07:07.145Z,1.60
2018-02-25T11:09:33.342Z,1.90
2018-02-25T11:11:59.567Z,1.30
2018-02-25T11:14:25.838Z,2.10
2018-02-25T11:16:52.702Z,3.10
2018-02-25T11:19:19.608Z,2.00
2018-02-25T11:21:45.826Z,2.00
2018-02-25T11:24:12.038Z,2.70
2018-02-25T11:26:38.276Z,3.10
2018-02-25T11:29:04.519Z,2.00
2018-02-25T11:31:31.590Z,3.10
2018-02-25T11:33:57.651Z,3.10
2018-02-25T11:36:23.834Z,2.50
2018-02-25T11:38:50.815Z,3.40
2018-02-25T11:41:17.050Z,3.40
2018-02-25T11:43:43.265Z,2.40
2018-02-25T11:46:09.473Z,2.80
2018-02-25T11:48:36.745Z,3.10
2018-02-25T11:51:02.930Z,3.20
2018-02-25T11:53:29.168Z,2.80
2018-02-25T11:55:55.311Z,3.20
2018-02-25T11:58:22.229Z,3.60
2018-02-25T12:00:48.468Z,3.60
2018-02-25T12:03:14.694Z,3.40
2018-02-25T12:05:40.866Z,3.80
2018-02-25T12:08:07.091Z,3.40
2018-02-25T12:10:33.401Z,3.80
2018-02-25T12:13:00.365Z,3.70
2018-02-25T12:15:26.570Z,3.70
2018-02-25T12:17:53.480Z,3.50
2018-02-25T12:20:19.742Z,3.50
2018-02-25T12:22:46.712Z,2.80
2018-02-25T12:25:12.856Z,2.80
2018-02-25T12:27:39.101Z,3.40
2018-02-25T12:30:05.360Z,3.30
2018-02-25T12:32:31.592Z,4.00
2018-02-25T12:34:58.580Z,3.90
2018-02-25T12:37:24.738Z,3.90
2018-02-25T12:39:50.923Z,3.80
2018-02-25T12:42:17.178Z,3.50
2018-02-25T12:44:43.391Z,3.80
2018-02-25T12:47:09.576Z,4.10
2018-02-25T12:49:35.800Z,4.20
2018-02-25T12:52:02.019Z,3.40
2018-02-25T12:54:28.204Z,3.30
2018-02-25T12:56:54.392Z,3.70
2018-02-25T12:59:21.305Z,3.90
2018-02-25T13:01:47.501Z,3.90
2018-02-25T13:04:13.727Z,3.40
2018-02-25T13:06:39.895Z,3.30
2018-02-25T13:09:06.098Z,3.60
2018-02-25T13:11:32.319Z,4.30
2018-02-25T13:13:58.514Z,4.60
2018-02-25T13:16:24.732Z,3.40
2018-02-25T13:18:50.958Z,4.00
2018-02-25T13:21:17.934Z,3.10
2018-02-25T13:23:44.119Z,3.10
2018-02-25T13:26:11.066Z,3.10
2018-02-25T13:28:37.251Z,3.10
2018-02-25T13:31:03.416Z,3.40
2018-02-25T13:33:30.412Z,4.10
2018-02-25T13:35:56.610Z,4.10
2018-02-25T13:38:22.871Z,4.20
2018-02-25T13:40:49.110Z,4.50
2018-02-25T13:43:15.324Z,4.80
2018-02-25T13:45:41.544Z,4.70
2018-02-25T13:48:07.688Z,4.60
2018-02-25T13:50:33.865Z,4.60
2018-02-25T13:53:00.125Z,4.80
2018-02-25T13:55:26.388Z,4.90
2018-02-25T13:57:52.553Z,5.10
2018-02-25T14:00:18.743Z,5.10
2018-02-25T14:02:44.914Z,5.20
2018-02-25T14:05:11.827Z,4.20
2018-02-25T14:07:37.984Z,4.20
2018-02-25T14:10:04.960Z,5.10
2018-02-25T14:12:31.198Z,5.10
2018-02-25T14:14:57.366Z,5.50
2018-02-25T14:17:24.313Z,6.20
2018-02-25T14:19:50.552Z,6.10
2018-02-25T14:22:16.749Z,6.50
2018-02-25T14:24:42.928Z,6.80
2018-02-25T14:27:09.141Z,7.60
2018-02-25T14:29:36.059Z,9.90
2018-02-25T14:32:02.236Z,9.80
2018-02-25T14:34:28.401Z,11.80
2018-02-25T14:36:54.717Z,11.70
2018-02-25T14:39:20.953Z,12.80
2018-02-25T14:41:47.157Z,13.80
2018-02-25T14:44:13.387Z,13.90
2018-02-25T14:46:39.564Z,14.40
2018-02-25T14:49:05.740Z,14.40
2018-02-25T14:51:31.947Z,14.80
2018-02-25T14:53:58.886Z,15.10
2018-02-25T14:56:25.068Z,15.10
2018-02-25T14:58:51.201Z,12.50
2018-02-25T15:01:17.512Z,12.30
2018-02-25T15:03:43.809Z,14.00
2018-02-25T15:06:10.019Z,11.10
2018-02-25T15:08:37.002Z,9.00
2018-02-25T15:11:03.178Z,9.00
2018-02-25T15:13:29.343Z,8.30
2018-02-25T15:15:55.608Z,6.80
2018-02-25T15:18:21.848Z,6.30
2018-02-25T15:20:48.092Z,6.70
2018-02-25T15:23:14.380Z,8.00
2018-02-25T15:25:40.541Z,9.40
2018-02-25T15:28:06.717Z,9.50
2018-02-25T15:30:32.891Z,10.20
2018-02-25T15:32:59.099Z,10.60
2018-02-25T15:35:25.283Z,10.70
2018-02-25T15:37:52.291Z,6.80
2018-02-25T15:40:18.527Z,6.80
2018-02-25T15:42:44.776Z,7.20
2018-02-25T15:45:11.787Z,8.60
2018-02-25T15:47:38.021Z,8.60
2018-02-25T15:50:05.005Z,7.50
2018-02-25T15:52:32.006Z,6.00
2018-02-25T15:54:58.249Z,6.00
2018-02-25T15:57:25.160Z,2.50
2018-02-25T15:59:51.344Z,2.40
2018-02-25T16:02:18.310Z,1.10
2018-02-25T16:04:46.671Z,1.10
2018-02-25T16:07:13.632Z,1.10
2018-02-25T16:09:39.805Z,1.10
2018-02-25T16:12:06.054Z,0.80
2018-02-25T16:14:33.055Z,0.60
2018-02-25T16:16:59.216Z,0.60
2018-02-25T16:19:25.475Z,0.50
2018-02-25T16:21:51.683Z,0.40
2018-02-25T16:24:18.679Z,0.20
2018-02-25T16:26:44.947Z,0.20
2018-02-25T16:29:11.197Z,0.00
2018-02-25T16:31:38.169Z,0.00
2018-02-25T16:34:04.403Z,0.00
2018-02-25T16:36:30.657Z,-0.30
2018-02-25T16:38:56.869Z,-0.70
2018-02-25T16:41:23.075Z,-0.60
2018-02-25T16:43:49.961Z,-0.60
2018-02-25T16:46:16.181Z,-0.60
2018-02-25T16:48:42.413Z,-0.60
2018-02-25T16:51:08.622Z,-0.40
2018-02-25T16:53:34.863Z,-0.50
2018-02-25T16:56:01.057Z,-0.70
2018-02-25T16:58:28.048Z,-1.10
2018-02-25T17:00:54.336Z,-1.10
2018-02-25T17:03:20.571Z,-1.00
2018-02-25T17:05:46.810Z,-1.20
2018-02-25T17:08:13.024Z,-1.20
2018-02-25T17:10:39.301Z,-1.30
2018-02-25T17:13:05.454Z,-1.40
2018-02-25T17:15:32.396Z,-1.30
2018-02-25T17:17:59.282Z,-1.20
2018-02-25T17:20:25.524Z,-1.30
2018-02-25T17:22:51.719Z,-1.30
2018-02-25T17:25:17.947Z,-1.50
2018-02-25T17:27:44.904Z,-1.50
2018-02-25T17:30:11.076Z,-1.50
2018-02-25T17:32:37.353Z,-1.50
2018-02-25T17:35:03.496Z,-1.60
2018-02-25T17:37:29.694Z,-1.60
2018-02-25T17:39:56.659Z,-1.80
2018-02-25T17:42:23.547Z,-1.90
2018-02-25T17:44:49.783Z,-2.00
2018-02-25T17:47:16.036Z,-2.00
2018-02-25T17:49:42.985Z,-2.30
2018-02-25T17:52:09.160Z,-2.30
2018-02-25T17:54:35.288Z,-2.20
2018-02-25T17:57:01.475Z,-1.90
2018-02-25T17:59:28.395Z,-2.10
2018-02-25T18:01:55.414Z,-2.10
2018-02-25T18:04:22.237Z,-2.30
2018-02-25T18:06:48.428Z,-2.30
2018-02-25T18:09:15.383Z,-2.20
2018-02-25T18:11:42.309Z,-2.40
2018-02-25T18:14:09.227Z,-2.40
2018-02-25T18:16:35.419Z,-2.40
2018-02-25T18:19:01.594Z,-2.50
2018-02-25T18:21:27.801Z,-2.60
2018-02-25T18:23:53.967Z,-2.60
2018-02-25T18:26:20.888Z,-2.80
2018-02-25T18:28:47.101Z,-2.70
2018-02-25T18:31:13.352Z,-2.70
2018-02-25T18:33:40.308Z,-3.00
2018-02-25T18:36:06.517Z,-3.00
2018-02-25T18:38:32.768Z,-2.90
2018-02-25T18:40:59.085Z,-2.90
2018-02-25T18:43:25.261Z,-2.90
2018-02-25T18:45:51.533Z,-2.90
2018-02-25T18:48:17.747Z,-2.90
2018-02-25T18:50:43.972Z,-2.80
2018-02-25T18:53:10.231Z,-2.80
2018-02-25T18:55:37.227Z,-2.90
2018-02-25T18:58:03.413Z,-2.90
2018-02-25T19:00:30.388Z,-3.30
2018-02-25T19:02:56.631Z,-3.30
2018-02-25T19:05:22.821Z,-3.10
2018-02-25T19:07:49.796Z,-3.20
2018-02-25T19:10:16.061Z,-3.20
2018-02-25T19:12:42.271Z,-3.50
2018-02-25T19:15:08.561Z,-3.70
2018-02-25T19:17:34.822Z,-3.60
2018-02-25T19:20:01.091Z,-3.50
2018-02-25T19:22:27.279Z,-3.40
2018-02-25T19:24:53.482Z,-3.50
2018-02-25T19:27:19.715Z,-3.60
2018-02-25T19:29:45.943Z,-3.60
2018-02-25T19:32:12.168Z,-3.60
2018-02-25T19:34:38.387Z,-3.40
2018-02-25T19:37:11.420Z,-3.60
2018-02-25T19:39:43.814Z,-3.60
2018-02-25T19:42:10.957Z,-3.80
2018-02-25T19:44:37.141Z,-3.60
2018-02-25T19:47:03.374Z,-3.70
2018-02-25T19:49:29.562Z,-3.60
2018-02-25T19:51:56.553Z,-3.90
2018-02-25T19:54:22.741Z,-3.90
2018-02-25T19:56:49.736Z,-3.90
2018-02-25T19:59:15.956Z,-4.00
2018-02-25T20:01:42.130Z,-4.10
2018-02-25T20:04:09.071Z,-4.00
2018-02-25T20:06:35.255Z,-4.00
2018-02-25T20:09:01.795Z,-4.10
2018-02-25T20:11:28.082Z,-4.10
2018-02-25T20:13:55.042Z,-3.90
2018-02-25T20:16:22.038Z,-4.00
2018-02-25T20:18:48.331Z,-4.00
2018-02-25T20:21:14.482Z,-4.00
2018-02-25T20:23:40.727Z,-4.10
2018-02-25T20:26:06.967Z,-4.00
2018-02-25T20:28:33.172Z,-4.00
2018-02-25T20:30:59.399Z,-4.20
2018-02-25T20:33:25.571Z,-4.20
2018-02-25T20:35:52.474Z,-4.30
2018-02-25T20:38:18.719Z,-4.40
2018-02-25T20:40:44.982Z,-4.50
2018-02-25T20:43:11.938Z,-4.40
2018-02-25T20:45:38.066Z,-4.40
2018-02-25T20:48:04.282Z,-4.40
2018-02-25T20:50:31.190Z,-4.40
2018-02-25T20:52:57.392Z,-4.40
2018-02-25T20:55:23.607Z,-4.40
2018-02-25T20:57:49.999Z,-4.30
2018-02-25T21:00:16.982Z,-4.40
2018-02-25T21:02:43.194Z,-4.40
2018-02-25T21:05:09.427Z,-4.30
2018-02-25T21:07:35.650Z,-4.30
2018-02-25T21:10:01.906Z,-4.30
2018-02-25T21:12:28.145Z,-4.40
2018-02-25T21:14:54.284Z,-4.40
2018-02-25T21:17:20.520Z,-4.30
2018-02-25T21:19:46.715Z,-4.60
2018-02-25T21:22:12.957Z,-4.70
2018-02-25T21:24:39.151Z,-4.70
2018-02-25T21:27:05.293Z,-5.00
2018-02-25T21:29:31.478Z,-5.10
2018-02-25T21:31:58.450Z,-5.00
2018-02-25T21:34:24.644Z,-5.10
2018-02-25T21:36:50.794Z,-5.00
2018-02-25T21:39:17.679Z,-5.20
2018-02-25T21:41:43.867Z,-5.20
2018-02-25T21:44:17.066Z,-5.10
2018-02-25T21:46:43.318Z,-5.30
2018-02-25T21:49:09.540Z,-5.10
2018-02-25T21:51:35.794Z,-5.10
2018-02-25T21:54:02.033Z,-5.10
2018-02-25T21:56:34.429Z,-5.10
2018-02-25T21:59:07.425Z,-5.30
2018-02-25T22:01:40.615Z,-5.60
2018-02-25T22:04:07.539Z,-5.60
2018-02-25T22:06:33.758Z,-5.70
2018-02-25T22:09:00.024Z,-5.50
2018-02-25T22:11:26.908Z,-5.20
2018-02-25T22:13:53.154Z,-5.20
2018-02-25T22:16:19.406Z,-5.10
2018-02-25T22:18:46.351Z,-5.60
2018-02-25T22:21:13.282Z,-5.50
2018-02-25T22:23:39.470Z,-5.50
2018-02-25T22:26:05.657Z,-5.50
2018-02-25T22:28:32.607Z,-5.60
2018-02-25T22:30:59.567Z,-5.60
2018-02-25T22:33:25.717Z,-5.60
2018-02-25T22:35:51.942Z,-5.70
2018-02-25T22:38:18.114Z,-5.90
2018-02-25T22:40:44.274Z,-5.80
2018-02-25T22:43:10.496Z,-5.60
2018-02-25T22:45:36.702Z,-5.60
2018-02-25T22:48:02.958Z,-5.50
2018-02-25T22:50:29.217Z,-5.50
2018-02-25T22:52:55.398Z,-5.70
2018-02-25T22:55:22.273Z,-5.50
2018-02-25T22:57:48.471Z,-5.50
2018-02-25T23:00:21.357Z,-5.70
2018-02-25T23:02:48.368Z,-5.80
2018-02-25T23:05:14.562Z,-5.80
2018-02-25T23:07:40.752Z,-5.70
2018-02-25T23:10:07.730Z,-5.60
2018-02-25T23:12:33.957Z,-5.70
2018-02-25T23:15:00.132Z,-5.60
2018-02-25T23:17:26.347Z,-5.70
2018-02-25T23:19:52.558Z,-5.70
2018-02-25T23:22:18.734Z,-5.90
2018-02-25T23:24:44.944Z,-5.80
2018-02-25T23:27:11.103Z,-5.90
2018-02-25T23:29:38.110Z,-6.10
2018-02-25T23:32:04.292Z,-6.10
2018-02-25T23:34:30.486Z,-6.20
2018-02-25T23:36:56.718Z,-6.30
2018-02-25T23:39:23.659Z,-6.00
2018-02-25T23:41:50.563Z,-5.90
2018-02-25T23:44:16.710Z,-5.90
2018-02-25T23:46:42.912Z,-5.90
2018-02-25T23:49:09.050Z,-6.00
2018-02-25T23:51:35.212Z,-6.10
2018-02-25T23:54:02.171Z,-6.20
2018-02-25T23:56:28.361Z,-6.20
2018-02-25T23:58:54.501Z,-6.10
